Metar Cercanos

 

LEPA - Palma De Mallorc, Spain
Distance from station: ONO 38km
Actualización: 14/08/2018 12:30
Parcialmente nuboso
Parcialmente nuboso
 Viento del ENE
Viento: ENE 17 km/h
Temperatura: 31°C
Indice Calor: 36°C
Rocío: 23°C
Humedad: 62%
Barómetro: 1016 hPa
Clouds: Parcialmente nuboso
Visibility: 10 km
Cloud details: Few Clouds 762 m
Parcialmente nuboso 975 m
2018/08/14 10:30 LEPA 141030Z 07009KT 040V110 9999 FEW025 SCT032 31/23 Q1016 NOSIG
LEMH - Mahon/Menorca Is, Spain
Distance from station: ENE 105km
Actualización: 14/08/2018 12:30
Parcialmente nuboso
Parcialmente nuboso
 Viento del NE
Viento: NE 33 km/h
Temperatura: 28°C
Indice Calor: 29°C
Rocío: 20°C
Humedad: 62%
Barómetro: 1016 hPa
Clouds: Parcialmente nuboso
Visibility: 10 km
Cloud details: Few Clouds 610 m
Parcialmente nuboso 853 m
2018/08/14 10:30 LEMH 141030Z 04018KT 010V080 9999 FEW020 SCT028 28/20 Q1016
 
LEIB - Ibiza/Es Codola, Spain
Distance from station: OSO 165km
Actualización: 14/08/2018 12:30
Muy nuboso
Muy nuboso
 Viento del E
Viento: E 13 km/h
Temperatura: 30°C
Indice Calor: 34°C
Rocío: 23°C
Humedad: 66%
Barómetro: 1016 hPa
Clouds: Muy nuboso
Visibility: 10 km
Cloud details: Few Clouds 914 m
Parcialmente nuboso 975 m
Muy nuboso 1219 m
2018/08/14 10:30 LEIB 141030Z 09007KT 050V140 9999 FEW030TCU SCT032 BKN040 30/23 Q1016 NOSIG
LEBL - Barcelona Airpor, Spain
Distance from station: NNO 225km
Actualización: 14/08/2018 12:30
Parcialmente nuboso
Parcialmente nuboso
 Viento del NO
Viento: NO 9 km/h
Temperatura: 26°C
Rocío: 18°C
Humedad: 61%
Barómetro: 1017 hPa
Clouds: Parcialmente nuboso
Visibility: 10 km
Cloud details: Parcialmente nuboso 914 m
2018/08/14 10:30 LEBL 141030Z 31005KT 250V350 9999 SCT030 26/18 Q1017 NOSIG
 
LEVC - Valencia (civ/Mi, Spain
Distance from station: NO 188km
Actualización: 14/08/2018 12:30
Parcialmente nuboso
Parcialmente nuboso
 Viento del ESE
Viento: ESE 9 km/h
Temperatura: 30°C
Indice Calor: 29°C
Rocío: 15°C
Humedad: 40%
Barómetro: 1017 hPa
Clouds: Parcialmente nuboso
Visibility: 10 km
Cloud details: Few Clouds 762 m
Parcialmente nuboso 1768 m
2018/08/14 10:30 LEVC 141030Z 11005KT 050V190 9999 FEW025 SCT058 30/15 Q1017 NOSIG
LEGE - Gerona/Costa Bra, Spain
Distance from station: N 276km
Actualización: 14/08/2018 12:30
Muy nuboso
Muy nuboso
 Viento del NE
Viento: NE 9 km/h
Temperatura: 25°C
Rocío: 16°C
Humedad: 57%
Barómetro: 1017 hPa
Clouds: Muy nuboso
Visibility: 10 km
Cloud details: Parcialmente nuboso 1219 m
Muy nuboso 1829 m
2018/08/14 10:30 LEGE 141030Z 05005KT 010V120 9999 SCT040 BKN060 25/16 Q1017
 
LEAL - Alicante/El Alte, Spain
Distance from station: OSO 344km
Actualización: 14/08/2018 12:30
Few Clouds
Few Clouds
 Viento del E
Viento: E 22 km/h
Temperatura: 30°C
Indice Calor: 34°C
Rocío: 23°C
Humedad: 66%
Barómetro: 1016 hPa
Clouds: Few Clouds
Visibility: 10 km
Cloud details: Few Clouds 549 m
2018/08/14 10:30 LEAL 141030Z 10012KT 070V140 9999 FEW018 30/23 Q1016 NOSIG
LEAM - Almeria Airport, Spain
Distance from station: SSO 56km
Actualización: 14/08/2018 12:30
Despejado
Despejado
 Viento del SSO
Viento: SSO 11 km/h
Temperatura: 27°C
Indice Calor: 30°C
Rocío: 23°C
Humedad: 79%
Barómetro: 1015 hPa
Resumen: Despejado
Visibility: greater than 10 km
2018/08/14 10:30 LEAM 141030Z 20006KT 170V260 CAVOK 27/23 Q1015
 
LEZG - Zaragoza (mil/Ci, Spain
Distance from station: NO 431km
Actualización: 14/08/2018 12:30
Few Clouds
Few Clouds
 Viento del ONO
Viento: ONO 37 km/h, Racha: 57 km/h
Temperatura: 25°C
Rocío: 12°C
Humedad: 44%
Barómetro: 1020 hPa
Clouds: Few Clouds
Visibility: 10 km
Cloud details: Few Clouds 1219 m
2018/08/14 10:30 LEZG 141030Z 30020G31KT 270V330 9999 FEW040 25/12 Q1020
LEMD - Madrid/Barajas, Spain
Distance from station: ONO 234km
Actualización: 14/08/2018 12:30
Despejado
Despejado
 Viento del N
Viento: N 13 km/h
Temperatura: 28°C
Indice Calor: 27°C
Rocío: 13°C
Humedad: 40%
Barómetro: 1019 hPa
Resumen: Despejado
Visibility: greater than 10 km
2018/08/14 10:30 LEMD 141030Z 01007KT 340V040 CAVOK 28/13 Q1019 NOSIG
 
LEGR - Granada Airport, Spain
Distance from station: OSO 62km
Actualización: 14/08/2018 12:30
Despejado
Despejado
 Viento del varies
Viento: varies 2 km/h
Temperatura: 29°C
Rocío: 11°C
Humedad: 33%
Barómetro: 1018 hPa
Resumen: Despejado
Visibility: greater than 10 km
2018/08/14 10:30 LEGR 141030Z VRB01KT CAVOK 29/11 Q1018
LEMG - Malaga (civ/Mil), Spain
Distance from station: OSO 227km
Actualización: 14/08/2018 12:30
Despejado
Despejado
 Viento del OSO
Viento: OSO 17 km/h
Temperatura: 35°C
Rocío: 11°C
Humedad: 23%
Barómetro: 1014 hPa
Resumen: Despejado
Visibility: greater than 10 km
2018/08/14 10:30 LEMG 141030Z 25009KT 210V280 CAVOK 35/11 Q1014 NOSIG
 
LEZL - Sevilla (civ/Mil, Spain
Distance from station: S 318km
Actualización: 14/08/2018 12:30
Despejado
Despejado
 Viento del varies
Viento: varies 7 km/h
Temperatura: 27°C
Indice Calor: 28°C
Rocío: 19°C
Humedad: 62%
Barómetro: 1017 hPa
Resumen: Despejado
Visibility: greater than 10 km
2018/08/14 10:30 LEZL 141030Z VRB04KT CAVOK 27/19 Q1017 NOSIG
LEVT - Vitoria, Spain
Distance from station: NO 226km
Actualización: 14/08/2018 12:30
Muy nuboso
Muy nuboso
 Viento del ONO
Viento: ONO 9 km/h
Temperatura: 19°C
Rocío: 14°C
Humedad: 73%
Barómetro: 1024 hPa
Clouds: Muy nuboso
Visibility: 10 km
Cloud details: Few Clouds 610 m
Muy nuboso 1372 m
2018/08/14 10:30 LEVT 141030Z 30005KT 250V340 9999 FEW020 BKN045 19/14 Q1024
 
LEBB - Bilbao/Sondica, Spain
Distance from station: NNO 235km
Actualización: 14/08/2018 12:30
Muy nuboso
Muy nuboso
 Viento del NNO
Viento: NNO 13 km/h
Temperatura: 22°C
Rocío: 17°C
Humedad: 73%
Barómetro: 1023 hPa
Clouds: Muy nuboso
Visibility: 10 km
Cloud details: Few Clouds 640 m
Muy nuboso 1646 m
2018/08/14 10:30 LEBB 141030Z 33007KT 280V010 9999 FEW021 BKN054 22/17 Q1023 NOSIG
LESO - San Sebastian/Fu, Spain
Distance from station: N 231km
Actualización: 14/08/2018 12:30
Parcialmente nuboso
Parcialmente nuboso
 Viento del N
Viento: N 11 km/h
Temperatura: 23°C
Rocío: 17°C
Humedad: 69%
Barómetro: 1022 hPa
Clouds: Parcialmente nuboso
Visibility: 10 km
Cloud details: Few Clouds 792 m
Parcialmente nuboso 1219 m
2018/08/14 10:30 LESO 141030Z 36006KT 310V050 9999 FEW026 SCT040 23/17 Q1022
 
LEVD - Valladolid(Mil/C, Spain
Distance from station: ONO 239km
Actualización: 14/08/2018 12:30
Despejado
Despejado
 Viento del ENE
Viento: ENE 20 km/h
Temperatura: 21°C
Rocío: 11°C
Humedad: 53%
Barómetro: 1023 hPa
Resumen: Despejado
Visibility: greater than 10 km
2018/08/14 10:30 LEVD 141030Z 06011KT 020V100 CAVOK 21/11 Q1023
LESA - Salamanca (civ/M, Spain
Distance from station: ONO 349km
Actualización: 14/08/2018 12:30
Despejado
Despejado
 Viento del E
Viento: E 17 km/h
Temperatura: 24°C
Rocío: 13°C
Humedad: 50%
Barómetro: 1022 hPa
Resumen: Despejado
Visibility: greater than 10 km
2018/08/14 10:30 LESA 141030Z 08009KT 040V110 CAVOK 24/13 Q1022
 
LEXJ - Santander/Paraya, Spain
Distance from station: NNO 247km
Actualización: 14/08/2018 12:30
Muy nuboso
Muy nuboso
 Viento del SSO
Viento: SSO 7 km/h
Temperatura: 22°C
Rocío: 18°C
Humedad: 78%
Barómetro: 1023 hPa
Clouds: Muy nuboso
Visibility: 10 km
Cloud details: Parcialmente nuboso 610 m
Muy nuboso 1676 m
2018/08/14 10:30 LEXJ 141030Z 20004KT 150V230 9999 SCT020 BKN055 22/18 Q1023
LEAS - Asturias/Aviles, Spain
Distance from station: NO 214km
Actualización: 14/08/2018 12:30
Parcialmente nuboso
Parcialmente nuboso
 Viento del NE
Viento: NE 9 km/h
Temperatura: 21°C
Rocío: 17°C
Humedad: 78%
Barómetro: 1023 hPa
Clouds: Parcialmente nuboso
Visibility: 10 km
Cloud details: Few Clouds 671 m
Parcialmente nuboso 1067 m
2018/08/14 10:30 LEAS 141030Z 05005KT 010V120 9999 FEW022 SCT035 21/17 Q1023 NOSIG
 
LECO - La Coruna/Alvedr, Spain
Distance from station: ONO 222km
Actualización: 14/08/2018 12:30
Few Clouds
Few Clouds
 Viento del NNE
Viento: NNE 11 km/h
Temperatura: 22°C
Rocío: 16°C
Humedad: 69%
Barómetro: 1021 hPa
Clouds: Few Clouds
Visibility: 10 km
Cloud details: Few Clouds 762 m
2018/08/14 10:30 LECO 141030Z 03006KT 300V080 9999 FEW025 22/16 Q1021 NOSIG
LEVX - Vigo/Peinador, Spain
Distance from station: O 214km
Actualización: 14/08/2018 12:30
Despejado
Despejado
 Viento del varies
Viento: varies 6 km/h
Temperatura: 25°C
Rocío: 15°C
Humedad: 54%
Barómetro: 1020 hPa
Resumen: Despejado
Visibility: greater than 10 km
2018/08/14 10:30 LEVX 141030Z VRB03KT CAVOK 25/15 Q1020 NOSIG